Time;durP1;ratioP1;P1;durP2;ratioP2;P2;SDS_P1;SDS_P2;PMS_P1;PMS_P2;Temp;Humidity;BMP_temperature;BMP_pressure;BME280_temperature;BME280_humidity;BME280_pressure;Samples;Min_cycle;Max_cycle;Signal;HPM_P1;HPM_P2
2023/01/13 00:00:42;;;;;;;1.35;0.73;;;11.90;99.90;;;;;;6201019;28;20046;-81
2023/01/13 00:03:44;;;;;;;1.52;0.60;;;11.90;99.90;;;;;;6201524;28;20050;-82
2023/01/13 00:06:46;;;;;;;2.28;1.00;;;11.90;99.90;;;;;;6193889;28;20047;-81
2023/01/13 00:09:48;;;;;;;3.33;0.60;;;12.00;99.90;;;;;;6205341;28;20157;-82
2023/01/13 00:12:50;;;;;;;2.05;0.80;;;11.90;99.90;;;;;;6199843;28;20049;-82
2023/01/13 00:15:57;;;;;;;0.60;0.52;;;11.90;99.90;;;;;;6185393;28;20137;-81
2023/01/13 00:18:58;;;;;;;2.67;0.83;;;11.90;99.90;;;;;;6184884;28;20043;-81
2023/01/13 00:22:00;;;;;;;1.20;0.88;;;11.90;99.90;;;;;;6184533;28;20051;-81
2023/01/13 00:25:03;;;;;;;2.83;1.23;;;11.90;99.90;;;;;;6183872;28;20046;-81
2023/01/13 00:28:05;;;;;;;2.90;0.95;;;11.80;99.90;;;;;;6184322;28;20050;-81
2023/01/13 00:31:10;;;;;;;1.60;0.77;;;11.80;99.90;;;;;;6184424;28;20042;-81
2023/01/13 00:34:12;;;;;;;2.95;0.77;;;11.80;99.90;;;;;;6185474;28;20098;-81
2023/01/13 00:37:14;;;;;;;1.95;0.50;;;11.80;99.90;;;;;;6184112;28;20496;-81
2023/01/13 00:40:15;;;;;;;1.15;0.70;;;11.80;99.90;;;;;;6183796;28;20536;-81
2023/01/13 00:43:23;;;;;;;0.70;0.70;;;11.80;99.90;;;;;;6184964;28;20047;-81
2023/01/13 00:46:26;;;;;;;2.35;0.60;;;11.70;99.90;;;;;;6184027;28;20050;-81
2023/01/13 00:49:28;;;;;;;1.13;0.75;;;11.60;99.90;;;;;;6183679;28;20043;-81
2023/01/13 00:52:31;;;;;;;5.78;0.75;;;11.50;99.90;;;;;;6184577;28;20055;-82
2023/01/13 00:55:33;;;;;;;2.20;0.90;;;11.40;99.90;;;;;;6189786;28;20053;-81
2023/01/13 00:58:35;;;;;;;2.97;0.90;;;11.40;99.90;;;;;;6193265;28;20057;-81
2023/01/13 01:01:39;;;;;;;1.67;0.77;;;11.20;99.90;;;;;;6183250;28;20050;-81
2023/01/13 01:04:40;;;;;;;2.80;0.70;;;11.20;99.90;;;;;;6183014;28;20047;-81
2023/01/13 01:07:42;;;;;;;1.17;0.88;;;11.20;99.90;;;;;;6182753;28;20055;-82
2023/01/13 01:10:44;;;;;;;0.60;0.50;;;11.20;99.90;;;;;;6183732;28;20046;-81
2023/01/13 01:13:46;;;;;;;4.28;0.80;;;11.20;99.90;;;;;;6183464;28;20057;-81
2023/01/13 01:16:49;;;;;;;1.52;0.85;;;11.20;99.90;;;;;;6183694;28;20045;-81
2023/01/13 01:19:51;;;;;;;4.72;0.98;;;11.20;99.90;;;;;;6183616;28;20050;-81
2023/01/13 01:22:53;;;;;;;1.48;0.65;;;11.10;99.90;;;;;;6184082;28;20394;-81
2023/01/13 01:25:55;;;;;;;6.03;0.85;;;11.00;99.90;;;;;;6183869;28;20097;-81
2023/01/13 01:28:57;;;;;;;0.98;0.55;;;11.00;99.90;;;;;;6190779;28;20033;-81
2023/01/13 01:32:00;;;;;;;12.85;4.32;;;10.90;99.90;;;;;;6206122;28;20050;-81
2023/01/13 01:35:01;;;;;;;2.53;0.93;;;10.90;99.90;;;;;;6215482;28;20133;-81
2023/01/13 01:38:03;;;;;;;2.30;1.10;;;10.80;99.90;;;;;;6210177;28;20047;-81
2023/01/13 01:41:05;;;;;;;2.50;0.68;;;10.80;99.90;;;;;;6210895;28;20038;-81
2023/01/13 01:44:22;;;;;;;2.20;0.80;;;10.80;99.90;;;;;;6210441;28;20061;-80
2023/01/13 01:47:27;;;;;;;0.73;0.70;;;10.90;99.90;;;;;;6203698;28;20081;-81
2023/01/13 01:50:30;;;;;;;5.22;1.10;;;11.00;99.90;;;;;;6204779;28;20062;-80
2023/01/13 01:53:33;;;;;;;1.85;0.47;;;11.00;99.90;;;;;;6205030;28;20053;-81
2023/01/13 01:56:36;;;;;;;5.43;1.48;;;11.00;99.90;;;;;;6204078;28;20042;-81
2023/01/13 01:59:38;;;;;;;3.60;1.40;;;11.10;99.90;;;;;;6197812;28;20050;-81
2023/01/13 02:02:44;;;;;;;2.60;0.75;;;11.20;99.90;;;;;;6204472;28;20046;-81
2023/01/13 02:05:46;;;;;;;6.20;0.85;;;11.20;99.90;;;;;;6201250;28;20165;-81
2023/01/13 02:08:48;;;;;;;3.92;0.82;;;11.20;99.90;;;;;;6204977;28;20053;-81
2023/01/13 02:15:11;;;;;;;2.75;1.08;;;11.10;99.90;;;;;;6203716;28;20137;-81
2023/01/13 02:18:31;;;;;;;2.53;0.57;;;11.00;99.90;;;;;;6203881;28;20050;-81
2023/01/13 02:21:51;;;;;;;4.72;1.08;;;10.90;99.90;;;;;;6204215;28;20050;-81
2023/01/13 02:25:12;;;;;;;1.95;1.30;;;10.90;99.90;;;;;;6204203;28;20052;-81
2023/01/13 02:28:29;;;;;;;6.22;1.38;;;10.70;99.90;;;;;;6202393;28;20054;-81
2023/01/13 02:31:43;;;;;;;1.35;0.60;;;10.70;99.90;;;;;;6204645;28;20053;-81
2023/01/13 02:34:53;;;;;;;0.80;0.80;;;10.70;99.90;;;;;;6202956;28;20108;-81
2023/01/13 02:37:57;;;;;;;3.85;1.08;;;10.70;99.90;;;;;;6202919;28;20055;-81
2023/01/13 02:44:05;;;;;;;3.25;1.55;;;10.70;99.90;;;;;;6203556;28;20517;-80
2023/01/13 02:44:30;;;;;;;2.08;0.75;;;10.80;99.90;;;;;;6203033;28;20069;-81
2023/01/13 02:47:37;;;;;;;3.83;1.15;;;10.90;99.90;;;;;;6202865;28;20046;-81
2023/01/13 02:50:42;;;;;;;2.08;1.00;;;10.90;99.90;;;;;;6202148;28;20113;-81
2023/01/13 02:53:47;;;;;;;1.25;1.15;;;11.00;99.90;;;;;;6203142;28;20504;-81
2023/01/13 02:56:50;;;;;;;4.53;0.63;;;11.10;99.90;;;;;;6203041;28;20049;-81
2023/01/13 02:59:54;;;;;;;5.22;0.60;;;11.10;99.90;;;;;;6195998;28;20425;-81
2023/01/13 03:02:58;;;;;;;4.43;0.82;;;11.20;99.90;;;;;;6179005;28;20057;-81
2023/01/13 03:06:13;;;;;;;2.08;1.20;;;11.30;99.90;;;;;;6179295;28;20568;-81
2023/01/13 03:09:22;;;;;;;3.42;1.02;;;11.30;99.90;;;;;;6192137;28;20050;-81
2023/01/13 03:12:34;;;;;;;3.33;1.15;;;11.40;99.90;;;;;;6204283;28;20054;-81
2023/01/13 03:15:45;;;;;;;0.80;0.60;;;11.40;99.90;;;;;;6204303;28;20053;-81
2023/01/13 03:18:57;;;;;;;3.75;1.20;;;11.40;99.90;;;;;;6201289;28;20057;-81
2023/01/13 03:22:07;;;;;;;1.95;0.80;;;11.50;99.90;;;;;;6202086;28;20481;-82
2023/01/13 03:25:15;;;;;;;1.75;1.13;;;11.50;99.90;;;;;;6202170;28;20130;-81
2023/01/13 03:28:23;;;;;;;3.10;0.63;;;11.50;99.90;;;;;;6201837;28;20050;-82
2023/01/13 03:31:30;;;;;;;4.93;0.98;;;11.60;99.90;;;;;;6203958;28;20054;-81
2023/01/13 03:34:42;;;;;;;2.28;0.70;;;11.60;99.90;;;;;;6202722;28;20050;-82
2023/01/13 03:37:48;;;;;;;1.80;0.93;;;11.60;99.90;;;;;;6201051;28;20416;-81
2023/01/13 03:40:54;;;;;;;3.45;0.75;;;11.60;99.90;;;;;;6210982;28;20053;-81
2023/01/13 03:44:22;;;;;;;1.98;0.77;;;11.60;99.90;;;;;;6228226;28;20050;-82
2023/01/13 03:47:28;;;;;;;4.40;0.85;;;11.60;99.90;;;;;;6227165;28;20045;-81
2023/01/13 03:50:36;;;;;;;1.10;0.80;;;11.60;99.90;;;;;;6227602;28;20054;-81
2023/01/13 03:53:39;;;;;;;;;;;11.70;99.90;;;;;;6211141;28;20536;-81
2023/01/13 03:56:45;;;;;;;2.28;0.88;;;11.70;99.90;;;;;;6199262;28;19922;-81
2023/01/13 03:59:52;;;;;;;2.75;0.80;;;11.70;99.90;;;;;;6200413;28;20073;-82
2023/01/13 04:02:57;;;;;;;1.77;0.75;;;11.70;99.90;;;;;;6180575;28;20055;-82
2023/01/13 04:06:10;;;;;;;2.95;0.60;;;11.60;99.90;;;;;;6179156;28;20045;-81
2023/01/13 04:09:18;;;;;;;2.58;0.88;;;11.60;99.90;;;;;;6179541;28;20039;-81
2023/01/13 04:12:27;;;;;;;1.02;0.82;;;11.60;99.90;;;;;;6179440;28;20440;-81
2023/01/13 04:15:31;;;;;;;0.65;0.55;;;11.60;99.90;;;;;;6180029;28;20282;-82
2023/01/13 04:18:37;;;;;;;0.40;0.38;;;11.70;99.90;;;;;;6178231;28;20055;-81
2023/01/13 04:21:41;;;;;;;0.88;0.73;;;11.70;99.90;;;;;;6179777;28;20062;-81
2023/01/13 04:24:43;;;;;;;2.08;0.32;;;11.60;99.90;;;;;;6179369;28;20047;-81
2023/01/13 04:27:44;;;;;;;1.13;0.70;;;11.60;99.90;;;;;;6179821;28;20043;-82
2023/01/13 04:30:46;;;;;;;0.93;0.68;;;11.60;99.90;;;;;;6198881;28;20053;-81
2023/01/13 04:33:48;;;;;;;2.90;0.50;;;11.60;99.90;;;;;;6204352;28;20046;-81
2023/01/13 04:36:51;;;;;;;1.33;0.38;;;11.60;99.90;;;;;;6203483;28;20046;-81
2023/01/13 04:39:53;;;;;;;0.50;0.50;;;11.60;99.90;;;;;;6203972;28;20054;-82
2023/01/13 04:42:55;;;;;;;1.05;0.60;;;11.60;99.90;;;;;;6204933;28;20046;-82
2023/01/13 04:45:56;;;;;;;2.50;0.50;;;11.60;99.90;;;;;;6207126;28;20079;-81
2023/01/13 04:48:58;;;;;;;3.35;0.52;;;11.60;99.90;;;;;;6208892;28;20043;-81
2023/01/13 04:52:02;;;;;;;2.25;0.73;;;11.60;99.90;;;;;;6203670;28;20518;-82
2023/01/13 04:55:05;;;;;;;3.35;1.17;;;11.60;99.90;;;;;;6205944;28;20054;-82
2023/01/13 04:58:08;;;;;;;1.92;0.45;;;11.60;99.90;;;;;;6195192;28;20146;-82
2023/01/13 05:01:10;;;;;;;2.10;0.90;;;11.60;99.90;;;;;;6194484;28;20057;-81
2023/01/13 05:04:14;;;;;;;2.83;0.47;;;11.60;99.90;;;;;;6204904;28;20058;-81
2023/01/13 05:07:17;;;;;;;2.40;0.50;;;11.60;99.90;;;;;;6203865;28;20112;-82
2023/01/13 05:17:02;;;;;;;1.35;0.30;;;11.60;99.90;;;;;;6205311;28;20102;-81
2023/01/13 05:20:04;;;;;;;0.32;0.30;;;11.50;99.90;;;;;;6204723;28;20058;-81
2023/01/13 05:26:31;;;;;;;0.60;0.47;;;11.60;99.90;;;;;;6186674;28;20126;-82
2023/01/13 05:29:33;;;;;;;2.53;0.32;;;11.60;99.90;;;;;;6179645;28;20085;-81
2023/01/13 05:32:34;;;;;;;0.90;0.65;;;11.50;99.90;;;;;;6181717;28;20047;-82
2023/01/13 05:35:38;;;;;;;0.88;0.43;;;11.50;99.90;;;;;;6181097;28;20054;-82
2023/01/13 05:38:41;;;;;;;0.30;0.30;;;11.50;99.90;;;;;;6180068;28;20043;-82
2023/01/13 05:45:02;;;;;;;0.68;0.22;;;11.50;99.90;;;;;;6179990;28;20042;-81
2023/01/13 05:48:04;;;;;;;0.25;0.25;;;11.50;99.90;;;;;;6179881;28;20046;-82
2023/01/13 05:51:08;;;;;;;0.98;0.50;;;11.40;99.90;;;;;;6180107;28;20054;-81
2023/01/13 05:54:11;;;;;;;0.50;0.50;;;11.40;99.90;;;;;;6180645;28;20543;-82
2023/01/13 05:57:13;;;;;;;0.43;0.43;;;11.50;99.90;;;;;;6181085;28;20078;-82
2023/01/13 06:00:16;;;;;;;1.80;0.60;;;11.50;99.90;;;;;;6203112;28;20058;-82
2023/01/13 06:03:19;;;;;;;3.30;0.40;;;11.50;99.90;;;;;;6194257;28;20436;-82
2023/01/13 06:06:21;;;;;;;2.67;0.85;;;11.50;99.90;;;;;;6191386;28;20050;-81
2023/01/13 06:09:24;;;;;;;0.30;0.30;;;11.50;99.90;;;;;;6202620;28;20412;-81
2023/01/13 06:12:28;;;;;;;0.47;0.47;;;11.50;99.90;;;;;;6203284;28;20050;-82
2023/01/13 06:15:50;;;;;;;1.77;0.50;;;11.50;99.90;;;;;;6201146;28;20571;-81
2023/01/13 06:18:53;;;;;;;0.30;0.30;;;11.50;99.90;;;;;;6202267;28;20424;-82
2023/01/13 06:21:57;;;;;;;0.75;0.55;;;11.50;99.90;;;;;;6203930;28;20052;-82
2023/01/13 06:25:01;;;;;;;0.60;0.50;;;11.50;99.90;;;;;;6204147;28;20068;-82
2023/01/13 06:28:04;;;;;;;0.95;0.30;;;11.40;99.90;;;;;;6206558;28;20512;-82
2023/01/13 06:31:08;;;;;;;1.08;0.98;;;11.30;99.90;;;;;;6205625;28;20050;-83
2023/01/13 06:34:13;;;;;;;2.78;0.40;;;11.30;99.90;;;;;;6203429;28;20053;-82
2023/01/13 06:37:18;;;;;;;2.97;0.40;;;11.30;99.90;;;;;;6202582;28;20444;-82
2023/01/13 06:40:22;;;;;;;0.30;0.30;;;11.20;99.90;;;;;;6203213;28;20054;-82
2023/01/13 06:43:23;;;;;;;0.35;0.30;;;11.20;99.90;;;;;;6205140;28;20054;-82
2023/01/13 06:46:25;;;;;;;0.60;0.45;;;11.20;99.90;;;;;;6205251;28;20062;-82
2023/01/13 06:49:27;;;;;;;0.35;0.30;;;11.20;99.90;;;;;;6203671;28;20049;-82
2023/01/13 06:52:29;;;;;;;2.05;0.47;;;11.20;99.90;;;;;;6204240;28;20057;-82
2023/01/13 06:55:32;;;;;;;0.70;0.38;;;11.20;99.90;;;;;;6205454;28;20141;-81
2023/01/13 06:58:34;;;;;;;2.08;0.38;;;11.20;99.90;;;;;;6191877;28;20051;-82
2023/01/13 07:01:35;;;;;;;2.30;0.57;;;11.20;99.90;;;;;;6181368;28;20051;-82
2023/01/13 07:04:37;;;;;;;1.50;0.50;;;11.20;99.90;;;;;;6201876;28;20432;-82
2023/01/13 07:07:39;;;;;;;0.52;0.50;;;11.30;99.90;;;;;;6209928;28;20057;-82
2023/01/13 07:10:42;;;;;;;0.55;0.38;;;11.30;99.90;;;;;;6207218;28;20046;-82
2023/01/13 07:17:03;;;;;;;0.25;0.25;;;11.40;99.90;;;;;;6205224;28;20190;-82
2023/01/13 07:20:06;;;;;;;0.20;0.20;;;11.40;99.90;;;;;;6203254;28;20058;-81
2023/01/13 07:23:08;;;;;;;0.47;0.28;;;11.40;99.90;;;;;;6204117;28;20061;-81
2023/01/13 07:26:11;;;;;;;0.38;0.38;;;11.40;99.90;;;;;;6203986;28;20069;-81
2023/01/13 07:29:13;;;;;;;1.30;0.82;;;11.40;99.90;;;;;;6204485;28;20049;-81
2023/01/13 07:32:14;;;;;;;6.13;0.55;;;11.20;99.90;;;;;;6204102;28;20064;-80
2023/01/13 07:35:20;;;;;;;0.68;0.65;;;10.70;99.90;;;;;;6203530;28;20046;-80
2023/01/13 07:38:22;;;;;;;0.82;0.65;;;10.30;99.90;;;;;;6203504;28;20077;-80
2023/01/13 07:44:44;;;;;;;0.50;0.50;;;9.80;99.90;;;;;;6204850;28;20039;-80
2023/01/13 07:47:46;;;;;;;0.85;0.52;;;9.70;99.90;;;;;;6203292;28;20046;-79
2023/01/13 07:50:48;;;;;;;2.92;1.10;;;9.70;99.90;;;;;;6203181;28;20161;-80
2023/01/13 07:53:49;;;;;;;2.38;0.60;;;9.60;99.90;;;;;;6205648;28;20046;-81
2023/01/13 07:56:53;;;;;;;2.58;0.77;;;9.50;99.90;;;;;;6201473;28;20060;-80
2023/01/13 07:59:55;;;;;;;1.20;0.63;;;9.40;99.90;;;;;;6201632;28;20069;-80
2023/01/13 08:03:00;;;;;;;1.42;0.70;;;9.30;99.90;;;;;;6200880;28;20046;-81
2023/01/13 08:06:02;;;;;;;1.65;0.90;;;9.10;99.90;;;;;;6198456;28;20100;-81
2023/01/13 08:09:04;;;;;;;6.22;0.60;;;9.00;99.90;;;;;;6201081;28;20042;-81
2023/01/13 08:15:28;;;;;;;2.75;0.60;;;8.80;99.90;;;;;;6202537;28;20050;-81
2023/01/13 08:18:31;;;;;;;2.15;0.55;;;8.70;99.90;;;;;;6200909;28;20066;-81
2023/01/13 08:21:33;;;;;;;4.57;1.48;;;8.70;99.90;;;;;;6202651;28;20050;-81
2023/01/13 08:24:35;;;;;;;0.57;0.57;;;8.80;99.90;;;;;;6201560;28;20420;-81
2023/01/13 08:27:38;;;;;;;2.03;0.60;;;8.70;99.90;;;;;;6204871;28;20050;-81
2023/01/13 08:30:40;;;;;;;3.75;1.20;;;8.80;99.90;;;;;;6205345;28;20046;-81
2023/01/13 08:33:42;;;;;;;1.70;1.23;;;8.80;99.90;;;;;;6204838;28;20050;-81
2023/01/13 08:36:43;;;;;;;0.80;0.50;;;8.80;99.90;;;;;;6204704;28;20500;-81
2023/01/13 08:39:45;;;;;;;2.00;0.70;;;8.80;99.90;;;;;;6204975;28;20422;-82
2023/01/13 08:42:48;;;;;;;1.55;0.80;;;8.80;99.90;;;;;;6204873;28;20527;-81
2023/01/13 08:45:56;;;;;;;3.90;0.60;;;8.90;99.90;;;;;;6206076;28;20105;-82
2023/01/13 08:48:58;;;;;;;4.03;1.10;;;8.80;99.90;;;;;;6206764;28;20157;-82
2023/01/13 08:52:00;;;;;;;1.35;0.50;;;8.80;99.90;;;;;;6206784;28;20057;-81
2023/01/13 08:55:02;;;;;;;2.47;1.05;;;8.80;99.90;;;;;;6204963;28;20054;-82
2023/01/13 08:58:05;;;;;;;5.00;0.70;;;8.90;99.90;;;;;;6204996;28;20039;-82
2023/01/13 09:01:08;;;;;;;3.35;0.85;;;8.90;99.90;;;;;;6206246;28;20042;-82
2023/01/13 09:04:16;;;;;;;0.95;0.95;;;8.90;99.90;;;;;;6205596;28;20511;-81
2023/01/13 09:07:18;;;;;;;4.47;1.13;;;8.90;99.90;;;;;;6200825;28;20058;-81
2023/01/13 09:10:20;;;;;;;5.32;0.82;;;8.90;99.90;;;;;;6204690;28;20051;-82
2023/01/13 09:13:22;;;;;;;1.77;0.95;;;8.90;99.90;;;;;;6204120;28;20049;-81
2023/01/13 09:16:23;;;;;;;4.90;1.17;;;8.90;99.90;;;;;;6204478;28;20050;-82
2023/01/13 09:19:25;;;;;;;5.15;0.88;;;9.00;99.90;;;;;;6204275;28;20058;-82
2023/01/13 09:22:27;;;;;;;4.40;1.00;;;9.00;99.90;;;;;;6205471;28;20050;-82
2023/01/13 09:25:29;;;;;;;4.90;0.85;;;9.10;99.90;;;;;;6204970;28;20050;-82
2023/01/13 09:28:32;;;;;;;2.28;1.00;;;9.10;99.90;;;;;;6203638;28;20057;-81
2023/01/13 09:31:34;;;;;;;2.05;0.60;;;9.10;99.90;;;;;;6206967;28;20050;-83
2023/01/13 09:37:55;;;;;;;2.22;0.93;;;9.10;99.90;;;;;;6195793;28;20121;-80
2023/01/13 09:40:57;;;;;;;4.55;0.95;;;9.20;99.90;;;;;;6179114;28;20057;-82
2023/01/13 09:44:01;;;;;;;3.72;1.05;;;9.20;99.90;;;;;;6179953;28;20055;-83
2023/01/13 09:47:09;;;;;;;6.93;1.20;;;9.20;99.90;;;;;;6177869;28;20122;-81
2023/01/13 09:50:24;;;;;;;2.30;0.70;;;9.30;99.90;;;;;;6176748;28;20047;-80
2023/01/13 09:53:30;;;;;;;11.80;0.98;;;9.20;99.90;;;;;;6185729;28;20046;-80
2023/01/13 09:56:32;;;;;;;4.40;1.10;;;9.30;99.90;;;;;;6202917;28;20099;-82
2023/01/13 09:59:37;;;;;;;3.17;0.98;;;9.40;99.90;;;;;;6202815;28;20042;-83
2023/01/13 10:02:57;;;;;;;2.42;1.17;;;9.50;99.90;;;;;;6204252;28;20050;-84
2023/01/13 10:06:08;;;;;;;1.88;0.57;;;9.50;99.90;;;;;;6194772;28;20073;-82
2023/01/13 10:09:14;;;;;;;9.30;1.38;;;9.60;99.90;;;;;;6177721;28;20046;-82
2023/01/13 10:15:52;;;;;;;4.30;1.35;;;9.60;99.90;;;;;;6180057;28;20505;-81
2023/01/13 10:19:04;;;;;;;8.15;0.98;;;9.60;99.90;;;;;;6178047;28;20501;-82
2023/01/13 10:22:18;;;;;;;2.10;0.77;;;9.60;99.90;;;;;;6179349;28;20066;-84
2023/01/13 10:25:27;;;;;;;8.43;1.20;;;9.60;99.90;;;;;;6177663;28;20054;-80
2023/01/13 10:28:29;;;;;;;3.00;1.25;;;9.60;99.90;;;;;;6177598;28;20055;-81
2023/01/13 10:31:32;;;;;;;2.35;1.05;;;9.70;99.90;;;;;;6185506;28;20061;-82
2023/01/13 10:34:46;;;;;;;2.13;1.00;;;9.70;99.90;;;;;;6203722;28;20046;-81
2023/01/13 10:37:57;;;;;;;5.05;2.90;;;9.70;99.90;;;;;;6203738;28;20504;-82
2023/01/13 10:41:00;;;;;;;3.75;1.13;;;9.70;99.90;;;;;;6216194;28;20647;-81
2023/01/13 10:44:04;;;;;;;6.10;1.88;;;9.70;99.90;;;;;;6218050;28;20065;-83
2023/01/13 10:47:20;;;;;;;4.63;1.13;;;9.80;99.90;;;;;;6213039;28;20053;-81
2023/01/13 10:50:26;;;;;;;4.05;1.25;;;9.90;99.90;;;;;;6208163;28;20058;-83
2023/01/13 10:53:29;;;;;;;5.65;2.60;;;10.00;99.90;;;;;;6211302;28;20042;-82
2023/01/13 10:56:33;;;;;;;5.85;1.40;;;10.00;99.90;;;;;;6205126;28;20121;-82
2023/01/13 10:59:35;;;;;;;7.13;1.17;;;10.10;99.90;;;;;;6209097;28;20043;-83
2023/01/13 11:02:38;;;;;;;5.25;1.65;;;10.20;99.90;;;;;;6204440;28;20590;-82
2023/01/13 11:05:47;;;;;;;4.15;1.35;;;10.30;99.90;;;;;;6205403;28;20057;-82
2023/01/13 11:08:50;;;;;;;7.20;3.53;;;10.50;99.90;;;;;;6207310;28;20062;-83
2023/01/13 11:11:55;;;;;;;4.60;1.02;;;10.60;99.90;;;;;;6206579;28;20054;-82
2023/01/13 11:14:59;;;;;;;6.50;2.55;;;10.70;99.90;;;;;;6206104;28;20054;-83
2023/01/13 11:18:05;;;;;;;6.93;2.10;;;10.70;99.90;;;;;;6204816;28;20042;-83
2023/01/13 11:21:14;;;;;;;7.72;1.98;;;10.70;99.90;;;;;;6203230;28;20053;-82
2023/01/13 11:24:21;;;;;;;7.65;1.70;;;10.60;99.90;;;;;;6203114;28;20058;-82
2023/01/13 11:27:31;;;;;;;7.68;1.60;;;10.50;99.90;;;;;;6204137;28;20046;-82
2023/01/13 11:30:41;;;;;;;4.38;1.92;;;10.50;99.90;;;;;;6204894;28;20046;-82
2023/01/13 11:33:50;;;;;;;3.45;1.42;;;10.50;99.90;;;;;;6203313;28;20042;-82
2023/01/13 11:36:55;;;;;;;6.72;1.55;;;10.50;99.90;;;;;;6203198;28;20053;-83
2023/01/13 11:40:04;;;;;;;4.70;1.60;;;10.40;99.90;;;;;;6203198;28;20046;-82
2023/01/13 11:43:13;;;;;;;10.15;1.55;;;10.40;99.90;;;;;;6203625;28;20046;-82
2023/01/13 11:46:15;;;;;;;3.35;1.10;;;10.30;99.90;;;;;;6202245;28;20057;-82
2023/01/13 11:49:24;;;;;;;10.10;2.22;;;10.20;99.90;;;;;;6202675;28;20053;-83
2023/01/13 11:52:43;;;;;;;6.47;1.33;;;10.10;99.90;;;;;;6202977;28;20046;-83
2023/01/13 11:55:55;;;;;;;6.80;1.20;;;10.10;99.90;;;;;;6203971;28;20085;-82
2023/01/13 11:59:17;;;;;;;1.92;1.48;;;9.90;99.90;;;;;;6203716;28;20051;-81
2023/01/13 12:02:33;;;;;;;6.45;1.40;;;9.30;99.90;;;;;;6207973;28;20046;-82
2023/01/13 12:05:40;;;;;;;5.90;1.42;;;8.90;99.90;;;;;;6207872;28;20046;-81
2023/01/13 12:09:03;;;;;;;7.70;1.60;;;8.70;99.90;;;;;;6207260;28;20527;-81
2023/01/13 12:12:26;;;;;;;5.35;2.03;;;8.50;99.90;;;;;;6208786;28;20058;-81
2023/01/13 12:15:47;;;;;;;17.80;1.63;;;8.60;99.90;;;;;;6211044;28;20049;-82
2023/01/13 12:19:07;;;;;;;4.70;1.40;;;8.50;99.90;;;;;;6207733;28;20050;-82
2023/01/13 12:22:13;;;;;;;11.55;1.67;;;8.50;99.90;;;;;;6208316;28;20054;-82
2023/01/13 12:25:20;;;;;;;4.85;2.25;;;8.90;99.90;;;;;;6206589;28;20042;-82
2023/01/13 12:28:26;;;;;;;3.67;1.83;;;9.30;99.90;;;;;;6206001;28;20042;-82
2023/01/13 12:31:29;;;;;;;6.43;1.45;;;9.50;99.90;;;;;;6206718;28;20054;-82
2023/01/13 12:35:01;;;;;;;13.93;2.97;;;9.70;99.90;;;;;;6206393;28;20050;-82
2023/01/13 12:38:10;;;;;;;4.97;1.67;;;9.80;99.90;;;;;;6204911;28;20045;-81
2023/01/13 12:41:23;;;;;;;6.07;2.42;;;9.90;99.90;;;;;;6204928;28;20420;-81
2023/01/13 12:44:24;;;;;;;6.65;1.60;;;10.30;99.90;;;;;;6204929;28;20469;-81
2023/01/13 12:47:37;;;;;;;3.83;2.05;;;10.90;99.90;;;;;;6203654;28;20157;-80
2023/01/13 12:50:43;;;;;;;3.00;2.17;;;11.10;99.90;;;;;;6209270;28;20051;-80
2023/01/13 12:53:46;;;;;;;6.25;1.52;;;11.50;99.90;;;;;;6205623;28;20050;-80
2023/01/13 12:56:48;;;;;;;4.18;1.80;;;12.00;99.90;;;;;;6212538;28;20042;-80
2023/01/13 13:00:22;;;;;;;11.82;2.83;;;12.50;99.90;;;;;;6206855;28;20054;-82
2023/01/13 13:03:29;;;;;;;9.90;1.10;;;12.50;99.90;;;;;;6206151;28;20065;-80
2023/01/13 13:06:32;;;;;;;3.33;1.05;;;11.50;99.90;;;;;;6201369;28;20058;-80
2023/01/13 13:09:42;;;;;;;8.05;1.13;;;10.30;99.90;;;;;;6194023;28;20042;-79
2023/01/13 13:13:17;;;;;;;20.35;2.67;;;9.40;99.90;;;;;;6199818;28;20050;-80
2023/01/13 13:16:49;;;;;;;6.30;1.42;;;8.70;99.90;;;;;;6201790;28;20054;-80
2023/01/13 13:19:52;;;;;;;4.57;1.45;;;8.30;99.90;;;;;;6202991;28;20050;-81
2023/01/13 13:22:53;;;;;;;9.07;1.45;;;8.20;99.90;;;;;;6204887;28;20054;-81
2023/01/13 13:26:06;;;;;;;11.82;1.40;;;8.10;99.90;;;;;;6203363;28;20054;-81
2023/01/13 13:29:26;;;;;;;13.95;2.22;;;8.10;99.90;;;;;;6203357;28;20452;-82
2023/01/13 13:32:50;;;;;;;6.18;2.08;;;8.20;99.90;;;;;;6205148;28;20058;-81
2023/01/13 13:36:07;;;;;;;4.60;1.65;;;8.30;99.90;;;;;;6203772;28;20077;-81
2023/01/13 13:49:36;;;;;;;7.38;1.05;;;9.30;99.90;;;;;;6202765;28;20497;-80
2023/01/13 13:52:41;;;;;;;5.30;1.88;;;9.50;99.90;;;;;;6204767;28;20043;-81
2023/01/13 13:55:53;;;;;;;1.75;0.90;;;9.70;99.90;;;;;;6204994;28;20091;-82
2023/01/13 13:58:56;;;;;;;3.33;0.80;;;9.60;99.90;;;;;;6203316;28;20046;-81
2023/01/13 14:02:02;;;;;;;0.98;0.88;;;9.70;99.90;;;;;;6204523;28;20046;-80
2023/01/13 14:05:16;;;;;;;2.22;0.90;;;9.70;99.90;;;;;;6203916;28;20124;-81
2023/01/13 14:08:18;;;;;;;12.07;3.42;;;9.80;99.90;;;;;;6199708;28;20052;-80
2023/01/13 14:11:26;;;;;;;5.63;1.17;;;9.90;99.90;;;;;;6200786;28;20057;-80
2023/01/13 14:14:30;;;;;;;6.03;1.48;;;10.10;99.90;;;;;;6200813;28;20061;-82
2023/01/13 14:17:32;;;;;;;2.70;0.82;;;10.40;99.90;;;;;;6200935;28;20054;-81
2023/01/13 14:20:35;;;;;;;4.65;1.88;;;10.60;99.90;;;;;;6200330;28;20121;-80
2023/01/13 14:23:37;;;;;;;3.05;1.55;;;10.80;99.90;;;;;;6200652;28;20050;-81
2023/01/13 14:26:39;;;;;;;4.88;1.48;;;10.90;99.90;;;;;;6200871;28;20057;-81
2023/01/13 14:29:43;;;;;;;6.05;4.10;;;11.00;99.90;;;;;;6200524;28;20046;-80
2023/01/13 14:32:45;;;;;;;9.48;1.42;;;11.10;99.90;;;;;;6200078;28;20042;-81
2023/01/13 14:36:17;;;;;;;4.07;1.42;;;11.20;99.90;;;;;;6201464;28;20057;-81
2023/01/13 14:39:33;;;;;;;4.97;1.65;;;11.00;99.90;;;;;;6200912;28;20622;-81
2023/01/13 14:42:35;;;;;;;14.13;4.47;;;10.90;99.90;;;;;;6202150;28;20054;-81
2023/01/13 14:45:38;;;;;;;5.32;3.40;;;10.90;99.90;;;;;;6197975;28;20050;-81
2023/01/13 14:48:45;;;;;;;6.97;2.40;;;10.90;99.90;;;;;;6176722;28;20046;-81
2023/01/13 14:51:47;;;;;;;34.03;18.25;;;11.00;99.90;;;;;;6201299;28;20050;-81
2023/01/13 14:54:51;;;;;;;14.95;5.38;;;10.70;99.90;;;;;;6201144;28;20061;-81
2023/01/13 14:57:53;;;;;;;16.75;10.85;;;10.50;99.90;;;;;;6200878;28;20057;-81
2023/01/13 15:01:28;;;;;;;41.15;25.15;;;10.20;99.90;;;;;;6201690;28;20049;-81
2023/01/13 15:04:35;;;;;;;7.72;2.40;;;9.90;99.90;;;;;;6201068;28;20050;-80
2023/01/13 15:07:37;;;;;;;16.80;10.18;;;9.70;99.90;;;;;;6201676;28;20062;-82
2023/01/13 15:10:47;;;;;;;43.15;25.20;;;9.60;99.90;;;;;;6199377;28;20047;-82
2023/01/13 15:13:56;;;;;;;31.60;21.80;;;9.50;99.90;;;;;;6203550;28;20058;-81
2023/01/13 15:16:59;;;;;;;16.38;8.50;;;9.40;99.90;;;;;;6201422;28;20046;-81
2023/01/13 15:20:02;;;;;;;15.85;9.13;;;9.40;99.90;;;;;;6200686;28;20077;-81
2023/01/13 15:23:03;;;;;;;3.15;2.30;;;9.40;99.90;;;;;;6204663;28;20053;-81
2023/01/13 15:26:17;;;;;;;16.90;11.10;;;9.30;99.90;;;;;;6214151;28;20050;-80
2023/01/13 15:29:19;;;;;;;10.82;3.83;;;9.30;99.90;;;;;;6217772;28;20053;-82
2023/01/13 15:32:22;;;;;;;5.63;4.05;;;9.20;99.90;;;;;;6210343;28;20408;-81
2023/01/13 15:35:26;;;;;;;4.20;1.63;;;9.10;99.90;;;;;;6206193;28;20077;-81
2023/01/13 15:38:28;;;;;;;4.93;1.33;;;9.00;99.90;;;;;;6183550;28;20046;-81
2023/01/13 15:48:10;;;;;;;9.43;2.13;;;8.60;99.90;;;;;;6184730;28;20400;-81
2023/01/13 15:51:12;;;;;;;7.63;1.58;;;8.50;99.90;;;;;;6211046;28;20049;-82
2023/01/13 15:54:14;;;;;;;4.80;1.55;;;8.50;99.90;;;;;;6203784;28;20140;-81
2023/01/13 15:57:21;;;;;;;5.20;1.52;;;8.40;99.90;;;;;;6203459;28;20046;-81
2023/01/13 16:00:23;;;;;;;13.50;4.65;;;8.30;99.90;;;;;;6208702;28;20042;-82
2023/01/13 16:03:26;;;;;;;9.02;2.03;;;8.20;99.90;;;;;;6203898;28;20050;-83
2023/01/13 16:06:33;;;;;;;3.60;1.70;;;8.10;99.90;;;;;;6203138;28;20054;-82
2023/01/13 16:09:35;;;;;;;3.05;1.80;;;8.00;99.90;;;;;;6207435;28;20110;-82
2023/01/13 16:12:38;;;;;;;10.10;4.60;;;7.90;99.90;;;;;;6201761;28;20053;-82
2023/01/13 16:15:47;;;;;;;7.00;1.80;;;7.90;99.90;;;;;;6202921;28;20050;-82
2023/01/13 16:18:51;;;;;;;7.78;1.73;;;7.90;99.90;;;;;;6199167;28;20050;-82
2023/01/13 16:21:53;;;;;;;6.00;1.80;;;7.90;99.90;;;;;;6203514;28;20055;-82
2023/01/13 16:24:55;;;;;;;5.82;1.90;;;8.00;99.90;;;;;;6202754;28;20047;-82
2023/01/13 16:27:57;;;;;;;11.60;2.42;;;8.00;99.90;;;;;;6202820;28;20051;-82
2023/01/13 16:30:58;;;;;;;11.80;1.90;;;8.10;99.90;;;;;;6205311;28;20050;-82
2023/01/13 16:34:02;;;;;;;8.68;2.78;;;8.20;99.90;;;;;;6204307;28;20042;-82
2023/01/13 16:37:06;;;;;;;6.20;1.42;;;8.30;99.90;;;;;;6204152;28;20431;-83
2023/01/13 16:40:13;;;;;;;4.40;1.67;;;8.40;99.90;;;;;;6203369;28;20050;-81
2023/01/13 16:43:14;;;;;;;7.43;1.63;;;8.50;99.90;;;;;;6202265;28;20065;-82
2023/01/13 16:46:23;;;;;;;7.55;1.65;;;8.50;99.90;;;;;;6199696;28;20042;-82
2023/01/13 16:49:26;;;;;;;5.70;1.25;;;8.70;99.90;;;;;;6192008;28;20418;-82
2023/01/13 16:52:27;;;;;;;3.50;1.15;;;8.70;99.90;;;;;;6208721;28;20061;-82
2023/01/13 16:55:29;;;;;;;6.55;1.33;;;8.80;99.90;;;;;;6210243;28;20050;-82
2023/01/13 16:58:34;;;;;;;9.02;1.42;;;8.80;99.90;;;;;;6206845;28;20058;-82
2023/01/13 17:01:38;;;;;;;2.97;1.35;;;8.90;99.90;;;;;;6206532;28;20061;-81